createdAt,value
2023-02-08T00:00:24.953Z,13.25
2023-02-08T00:02:53.464Z,12.63
2023-02-08T00:05:23.920Z,13.63
2023-02-08T00:07:51.736Z,12.13
2023-02-08T00:10:19.712Z,13.73
2023-02-08T00:12:47.468Z,10.48
2023-02-08T00:15:16.543Z,13.85
2023-02-08T00:17:44.162Z,10.50
2023-02-08T00:20:12.936Z,12.15
2023-02-08T00:22:40.793Z,13.68
2023-02-08T00:25:09.181Z,13.82
2023-02-08T00:27:37.284Z,12.35
2023-02-08T00:30:06.090Z,12.13
2023-02-08T00:32:35.297Z,12.52
2023-02-08T00:35:03.137Z,12.27
2023-02-08T00:37:30.932Z,11.63
2023-02-08T00:40:00.037Z,12.90
2023-02-08T00:42:27.747Z,12.10
2023-02-08T00:44:55.478Z,12.48
2023-02-08T00:47:23.193Z,11.32
2023-02-08T00:49:52.445Z,12.30
2023-02-08T00:52:20.488Z,11.25
2023-02-08T00:54:48.322Z,13.10
2023-02-08T00:57:16.093Z,12.05
2023-02-08T00:59:43.900Z,12.73
2023-02-08T01:02:11.826Z,12.88
2023-02-08T01:04:39.925Z,11.43
2023-02-08T01:07:12.318Z,14.25
2023-02-08T01:09:40.176Z,11.23
2023-02-08T01:12:07.954Z,12.07
2023-02-08T01:14:35.804Z,11.30
2023-02-08T01:17:03.516Z,13.02
2023-02-08T01:19:31.371Z,12.63
2023-02-08T01:21:59.107Z,12.80
2023-02-08T01:24:28.303Z,12.25
2023-02-08T01:26:56.202Z,13.05
2023-02-08T01:29:24.027Z,12.70
2023-02-08T01:31:51.835Z,12.90
2023-02-08T01:34:19.694Z,12.80
2023-02-08T01:36:50.396Z,12.25
2023-02-08T01:39:18.269Z,11.23
2023-02-08T01:41:47.520Z,12.10
2023-02-08T01:44:52.513Z,10.52
2023-02-08T01:47:20.213Z,12.80
2023-02-08T01:49:48.224Z,12.52
2023-02-08T01:52:19.361Z,13.57
2023-02-08T01:54:50.833Z,12.85
2023-02-08T01:57:21.001Z,11.70
2023-02-08T01:59:51.467Z,13.55
2023-02-08T02:02:21.303Z,12.60
2023-02-08T02:04:49.930Z,12.18
2023-02-08T02:07:18.517Z,13.40
2023-02-08T02:09:47.884Z,12.32
2023-02-08T02:12:15.867Z,13.15
2023-02-08T02:14:44.903Z,12.95
2023-02-08T02:17:13.091Z,12.50
2023-02-08T02:19:47.970Z,13.77
2023-02-08T02:22:35.955Z,12.90
2023-02-08T02:25:21.010Z,12.68
2023-02-08T02:28:11.170Z,11.77
2023-02-08T02:31:00.853Z,12.65
2023-02-08T02:33:41.572Z,11.82
2023-02-08T02:36:17.250Z,11.07
2023-02-08T02:38:52.687Z,13.95
2023-02-08T02:41:41.426Z,14.40
2023-02-08T02:44:16.024Z,13.52
2023-02-08T02:46:47.936Z,14.32
2023-02-08T02:49:19.897Z,13.50
2023-02-08T02:51:50.183Z,12.30
2023-02-08T02:54:19.851Z,13.00
2023-02-08T02:56:50.176Z,12.45
2023-02-08T02:59:18.011Z,13.68
2023-02-08T03:01:47.497Z,12.80
2023-02-08T03:04:18.114Z,13.98
2023-02-08T03:06:58.401Z,12.55
2023-02-08T03:09:50.421Z,13.20
2023-02-08T03:12:29.096Z,15.82
2023-02-08T03:14:59.735Z,14.20
2023-02-08T03:17:35.989Z,12.65
2023-02-08T03:20:08.803Z,13.38
2023-02-08T03:22:44.596Z,14.98
2023-02-08T03:25:18.192Z,14.48
2023-02-08T03:27:52.745Z,13.38
2023-02-08T03:30:23.444Z,12.98
2023-02-08T03:32:53.645Z,16.05
2023-02-08T03:35:25.137Z,11.88
2023-02-08T03:37:56.356Z,14.65
2023-02-08T03:40:25.344Z,13.82
2023-02-08T03:42:54.020Z,14.68
2023-02-08T03:45:25.024Z,14.25
2023-02-08T03:47:54.734Z,15.05
2023-02-08T03:50:24.433Z,15.75
2023-02-08T03:52:53.351Z,15.00
2023-02-08T03:55:23.084Z,15.13
2023-02-08T03:57:54.081Z,13.55
2023-02-08T04:00:22.746Z,15.13
2023-02-08T04:02:56.694Z,14.93
2023-02-08T04:05:26.159Z,15.50
2023-02-08T04:07:53.990Z,15.90
2023-02-08T04:10:21.756Z,15.15
2023-02-08T04:12:50.157Z,14.65
2023-02-08T04:15:18.310Z,14.75
2023-02-08T04:17:45.905Z,12.82
2023-02-08T04:20:13.573Z,13.25
2023-02-08T04:22:42.490Z,12.88
2023-02-08T04:25:10.117Z,15.73
2023-02-08T04:27:38.023Z,14.05
2023-02-08T04:30:06.522Z,15.05
2023-02-08T04:32:34.288Z,12.90
2023-02-08T04:35:01.904Z,15.85
2023-02-08T04:37:29.544Z,15.38
2023-02-08T04:39:58.581Z,15.30
2023-02-08T04:42:26.424Z,12.70
2023-02-08T04:44:54.013Z,15.55
2023-02-08T04:47:21.826Z,13.60
2023-02-08T04:49:49.483Z,13.93
2023-02-08T04:52:17.203Z,12.50
2023-02-08T04:54:44.868Z,14.73
2023-02-08T04:57:15.433Z,14.68
2023-02-08T04:59:43.111Z,13.68
2023-02-08T05:02:10.855Z,14.20
2023-02-08T05:04:38.529Z,14.15
2023-02-08T05:07:06.290Z,17.58
2023-02-08T05:09:33.956Z,14.23
2023-02-08T05:12:01.594Z,15.00
2023-02-08T05:14:30.638Z,15.93
2023-02-08T05:16:58.296Z,15.13
2023-02-08T05:19:25.990Z,11.88
2023-02-08T05:21:53.626Z,15.85
2023-02-08T05:24:21.370Z,14.55
2023-02-08T05:26:48.969Z,15.57
2023-02-08T05:29:16.689Z,15.57
2023-02-08T05:31:45.779Z,15.70
2023-02-08T05:34:13.484Z,15.32
2023-02-08T05:36:41.054Z,14.45
2023-02-08T05:39:08.671Z,15.02
2023-02-08T05:41:36.297Z,14.82
2023-02-08T05:44:04.007Z,16.42
2023-02-08T05:46:31.824Z,16.33
2023-02-08T05:49:00.831Z,17.92
2023-02-08T05:52:03.023Z,15.65
2023-02-08T05:56:58.196Z,16.90
2023-02-08T05:59:25.819Z,16.63
2023-02-08T06:01:53.486Z,17.52
2023-02-08T06:04:22.696Z,18.25
2023-02-08T06:06:50.436Z,16.05
2023-02-08T06:09:18.125Z,17.15
2023-02-08T06:11:45.842Z,14.32
2023-02-08T06:14:13.446Z,16.98
2023-02-08T06:16:41.153Z,15.63
2023-02-08T06:19:08.770Z,14.93
2023-02-08T06:21:37.716Z,16.17
2023-02-08T06:24:06.780Z,16.05
2023-02-08T06:26:34.548Z,15.73
2023-02-08T06:29:02.196Z,16.27
2023-02-08T06:31:29.878Z,15.85
2023-02-08T06:33:57.593Z,16.65
2023-02-08T06:36:25.236Z,17.33
2023-02-08T06:38:54.203Z,16.73
2023-02-08T06:41:21.755Z,13.77
2023-02-08T06:43:49.367Z,16.67
2023-02-08T06:46:16.933Z,14.35
2023-02-08T06:48:44.516Z,17.85
2023-02-08T06:51:12.076Z,12.27
2023-02-08T06:53:39.786Z,16.33
2023-02-08T06:56:08.921Z,17.33
2023-02-08T06:58:37.949Z,15.20
2023-02-08T07:01:05.895Z,17.33
2023-02-08T07:03:33.504Z,17.60
2023-02-08T07:06:05.505Z,19.30
2023-02-08T07:08:33.838Z,16.38
2023-02-08T07:11:01.491Z,17.00
2023-02-08T07:13:30.454Z,16.00
2023-02-08T07:15:58.074Z,17.17
2023-02-08T07:18:25.717Z,16.45
2023-02-08T07:20:53.345Z,16.73
2023-02-08T07:23:20.993Z,15.13
2023-02-08T07:25:58.348Z,19.75
2023-02-08T07:28:27.144Z,16.95
2023-02-08T07:30:56.258Z,16.48
2023-02-08T07:33:24.598Z,17.73
2023-02-08T07:35:52.642Z,15.55
2023-02-08T07:38:20.923Z,19.83
2023-02-08T07:40:48.720Z,16.27
2023-02-08T07:43:16.408Z,18.63
2023-02-08T07:45:44.076Z,14.65
2023-02-08T07:48:13.246Z,16.05
2023-02-08T07:50:41.063Z,19.90
2023-02-08T07:53:08.798Z,16.98
2023-02-08T07:55:36.437Z,16.88
2023-02-08T07:58:04.108Z,19.02
2023-02-08T08:00:31.779Z,13.50
2023-02-08T08:02:59.429Z,18.02
2023-02-08T08:05:28.535Z,16.38
2023-02-08T08:07:56.144Z,17.48
2023-02-08T08:10:23.762Z,20.50
2023-02-08T08:12:51.347Z,16.85
2023-02-08T08:15:19.200Z,17.65
2023-02-08T08:17:46.771Z,18.45
2023-02-08T08:20:14.414Z,18.58
2023-02-08T08:22:43.372Z,20.13
2023-02-08T08:25:10.994Z,20.60
2023-02-08T08:27:38.628Z,19.80
2023-02-08T08:30:07.955Z,17.73
2023-02-08T08:32:35.671Z,16.65
2023-02-08T08:35:03.275Z,19.25
2023-02-08T08:37:31.021Z,18.48
2023-02-08T08:40:00.068Z,20.80
2023-02-08T08:42:27.820Z,19.88
2023-02-08T08:44:55.642Z,18.50
2023-02-08T08:47:23.278Z,18.38
2023-02-08T08:49:50.894Z,16.63
2023-02-08T08:52:18.563Z,18.85
2023-02-08T08:54:46.162Z,18.67
2023-02-08T08:57:39.993Z,18.02
2023-02-08T09:00:08.421Z,18.27
2023-02-08T09:02:36.549Z,16.83
2023-02-08T09:05:05.456Z,18.35
2023-02-08T09:07:34.368Z,17.00
2023-02-08T09:10:01.969Z,14.63
2023-02-08T09:12:29.746Z,18.90
2023-02-08T09:14:58.789Z,16.15
2023-02-08T09:17:26.409Z,15.30
2023-02-08T09:19:54.157Z,17.33
2023-02-08T09:22:21.870Z,18.65
2023-02-08T09:24:49.568Z,19.83
2023-02-08T09:27:19.115Z,17.50
2023-02-08T09:29:46.860Z,17.65
2023-02-08T09:32:15.939Z,17.50
2023-02-08T09:34:43.567Z,17.45
2023-02-08T09:37:11.155Z,18.35
2023-02-08T09:39:38.813Z,17.63
2023-02-08T09:42:16.309Z,15.80
2023-02-08T09:44:54.558Z,16.83
2023-02-08T09:47:26.919Z,16.73
2023-02-08T09:49:58.857Z,16.60
2023-02-08T09:54:59.384Z,16.90
2023-02-08T09:57:30.573Z,13.95
2023-02-08T09:59:59.833Z,17.80
2023-02-08T10:02:30.483Z,15.48
2023-02-08T10:05:00.837Z,14.63
2023-02-08T10:07:29.690Z,16.08
2023-02-08T10:09:59.903Z,16.45
2023-02-08T10:12:36.619Z,14.65
2023-02-08T10:15:11.641Z,15.68
2023-02-08T10:18:06.226Z,15.15
2023-02-08T10:20:44.583Z,14.70
2023-02-08T10:23:24.275Z,15.05
2023-02-08T10:26:04.404Z,14.43
2023-02-08T10:28:43.745Z,14.55
2023-02-08T10:31:17.884Z,15.70
2023-02-08T10:33:54.112Z,15.30
2023-02-08T10:36:23.536Z,13.95
2023-02-08T10:38:53.234Z,13.90
2023-02-08T10:41:23.179Z,13.65
2023-02-08T10:43:53.169Z,14.73
2023-02-08T10:46:27.054Z,14.50
2023-02-08T10:49:04.012Z,14.55
2023-02-08T10:51:31.894Z,13.68
2023-02-08T10:53:59.667Z,16.63
2023-02-08T10:56:45.661Z,14.40
2023-02-08T10:59:19.988Z,14.60
2023-02-08T11:01:48.944Z,15.50
2023-02-08T11:04:18.494Z,15.45
2023-02-08T11:06:47.171Z,14.55
2023-02-08T11:09:26.519Z,15.45
2023-02-08T11:11:54.580Z,16.58
2023-02-08T11:14:35.051Z,15.15
2023-02-08T11:17:26.013Z,15.30
2023-02-08T11:19:55.066Z,15.63
2023-02-08T11:22:24.536Z,15.20
2023-02-08T11:24:57.711Z,17.95
2023-02-08T11:27:33.738Z,16.38
2023-02-08T11:30:21.144Z,15.20
2023-02-08T11:32:50.090Z,14.98
2023-02-08T11:35:23.868Z,16.52
2023-02-08T11:37:52.926Z,14.48
2023-02-08T11:40:23.451Z,15.30
2023-02-08T11:42:51.445Z,15.73
2023-02-08T11:45:22.470Z,13.50
2023-02-08T11:47:50.723Z,13.20
2023-02-08T11:50:26.451Z,15.43
2023-02-08T11:52:58.318Z,13.45
2023-02-08T11:55:28.219Z,14.77
2023-02-08T11:57:58.623Z,14.15
2023-02-08T12:00:28.335Z,16.65
2023-02-08T12:03:00.121Z,16.00
2023-02-08T12:05:36.340Z,18.42
2023-02-08T12:08:09.144Z,15.70
2023-02-08T12:11:00.920Z,16.58
2023-02-08T12:13:43.253Z,17.17
2023-02-08T12:18:55.381Z,14.73
2023-02-08T12:21:26.729Z,16.48
2023-02-08T12:23:57.660Z,15.18
2023-02-08T12:26:37.383Z,15.73
2023-02-08T12:29:14.662Z,16.75
2023-02-08T12:31:51.360Z,17.23
2023-02-08T12:34:23.638Z,16.27
2023-02-08T12:37:29.150Z,16.77
2023-02-08T12:40:18.958Z,16.00
2023-02-08T12:42:55.947Z,14.48
2023-02-08T12:45:45.397Z,17.33
2023-02-08T12:48:23.570Z,16.13
2023-02-08T12:50:54.546Z,16.10
2023-02-08T12:53:30.951Z,16.25
2023-02-08T12:56:00.003Z,16.52
2023-02-08T12:58:30.306Z,16.35
2023-02-08T13:01:02.067Z,15.57
2023-02-08T13:03:36.805Z,15.88
2023-02-08T13:06:07.179Z,17.38
2023-02-08T13:08:42.339Z,14.13
2023-02-08T13:11:20.016Z,15.98
2023-02-08T13:13:54.766Z,13.68
2023-02-08T13:16:25.282Z,15.38
2023-02-08T13:18:55.675Z,16.75
2023-02-08T13:21:26.639Z,14.85
2023-02-08T13:23:55.627Z,14.80
2023-02-08T13:26:26.862Z,16.20
2023-02-08T13:28:56.558Z,15.30
2023-02-08T13:31:26.149Z,15.48
2023-02-08T13:34:01.539Z,14.00
2023-02-08T13:36:31.625Z,18.83
2023-02-08T13:39:01.707Z,14.63
2023-02-08T13:41:30.624Z,15.50
2023-02-08T13:44:00.054Z,16.63
2023-02-08T13:46:30.036Z,18.45
2023-02-08T13:49:00.473Z,17.67
2023-02-08T13:52:02.287Z,20.05
2023-02-08T13:54:31.262Z,19.23
2023-02-08T13:56:58.994Z,20.92
2023-02-08T13:59:34.021Z,21.35
2023-02-08T14:02:28.968Z,21.52
2023-02-08T14:05:30.134Z,21.08
2023-02-08T14:07:58.939Z,22.13
2023-02-08T14:10:36.933Z,20.58
2023-02-08T14:13:08.518Z,21.92
2023-02-08T14:15:38.705Z,22.98
2023-02-08T14:18:17.345Z,20.73
2023-02-08T14:20:58.547Z,22.73
2023-02-08T14:23:30.226Z,23.08
2023-02-08T14:26:01.476Z,22.30
2023-02-08T14:28:32.312Z,22.38
2023-02-08T14:31:02.573Z,21.85
2023-02-08T14:33:33.436Z,20.95
2023-02-08T14:36:03.364Z,19.05
2023-02-08T14:38:50.545Z,20.80
2023-02-08T14:41:46.950Z,22.55
2023-02-08T14:44:54.273Z,20.75
2023-02-08T14:48:05.317Z,21.45
2023-02-08T14:50:50.621Z,20.70
2023-02-08T14:53:22.892Z,21.75
2023-02-08T14:55:52.304Z,21.13
2023-02-08T14:58:28.145Z,21.17
2023-02-08T15:00:57.734Z,18.70
2023-02-08T15:03:26.623Z,20.42
2023-02-08T15:06:08.091Z,20.50
2023-02-08T15:08:35.808Z,19.95
2023-02-08T15:11:03.461Z,19.65
2023-02-08T15:13:32.489Z,18.05
2023-02-08T15:16:01.607Z,18.83
2023-02-08T15:18:31.007Z,19.95
2023-02-08T15:21:03.602Z,17.48
2023-02-08T15:23:31.964Z,21.55
2023-02-08T15:26:01.761Z,18.45
2023-02-08T15:28:32.839Z,18.35
2023-02-08T15:31:03.477Z,19.93
2023-02-08T15:33:31.900Z,16.52
2023-02-08T15:36:02.454Z,18.52
2023-02-08T15:38:31.460Z,18.00
2023-02-08T15:41:05.300Z,17.27
2023-02-08T15:43:34.656Z,19.25
2023-02-08T15:46:03.925Z,16.10
2023-02-08T15:48:32.933Z,14.10
2023-02-08T15:51:01.246Z,16.23
2023-02-08T15:53:29.349Z,18.63
2023-02-08T15:56:02.493Z,17.98
2023-02-08T15:58:36.372Z,17.02
2023-02-08T16:01:05.468Z,16.15
2023-02-08T16:03:33.436Z,16.42
2023-02-08T16:06:02.904Z,16.88
2023-02-08T16:08:32.316Z,16.33
2023-02-08T16:11:01.707Z,16.33
2023-02-08T16:13:31.941Z,17.00
2023-02-08T16:16:17.471Z,14.48
2023-02-08T16:18:46.989Z,18.27
2023-02-08T16:21:27.258Z,16.40
2023-02-08T16:24:02.376Z,16.73
2023-02-08T16:26:32.985Z,16.15
2023-02-08T16:29:01.801Z,17.92
2023-02-08T16:31:33.308Z,17.45
2023-02-08T16:34:03.477Z,17.65
2023-02-08T16:36:36.509Z,18.98
2023-02-08T16:39:46.840Z,16.08
2023-02-08T16:42:33.785Z,17.83
2023-02-08T16:45:18.421Z,18.45
2023-02-08T16:47:49.970Z,15.88
2023-02-08T16:50:19.976Z,18.77
2023-02-08T16:52:49.854Z,17.50
2023-02-08T16:55:20.016Z,19.00
2023-02-08T16:57:49.454Z,16.02
2023-02-08T17:00:20.709Z,17.48
2023-02-08T17:02:49.833Z,19.02
2023-02-08T17:05:18.398Z,18.52
2023-02-08T17:07:46.243Z,17.35
2023-02-08T17:10:23.320Z,18.17
2023-02-08T17:12:50.930Z,16.98
2023-02-08T17:15:20.916Z,16.83
2023-02-08T17:17:49.926Z,19.08
2023-02-08T17:20:21.171Z,18.50
2023-02-08T17:22:48.879Z,12.38
2023-02-08T17:25:19.156Z,17.52
2023-02-08T17:27:48.804Z,17.67
2023-02-08T17:30:21.584Z,17.17
2023-02-08T17:32:51.129Z,17.30
2023-02-08T17:35:19.189Z,18.42
2023-02-08T17:37:47.780Z,18.73
2023-02-08T17:40:15.698Z,18.63
2023-02-08T17:42:43.355Z,20.23
2023-02-08T17:45:11.496Z,26.63
2023-02-08T17:47:41.649Z,28.63
2023-02-08T17:50:11.593Z,26.95
2023-02-08T17:52:39.537Z,20.13
2023-02-08T17:55:08.853Z,20.23
2023-02-08T17:57:39.328Z,16.65
2023-02-08T18:00:09.980Z,17.73
2023-02-08T18:02:37.626Z,18.20
2023-02-08T18:05:05.734Z,17.02
2023-02-08T18:07:34.714Z,19.00
2023-02-08T18:10:04.132Z,17.33
2023-02-08T18:12:31.798Z,19.38
2023-02-08T18:14:59.493Z,18.23
2023-02-08T18:17:27.096Z,18.70
2023-02-08T18:19:54.846Z,16.27
2023-02-08T18:22:24.991Z,16.52
2023-02-08T18:24:55.210Z,17.10
2023-02-08T18:27:24.924Z,17.15
2023-02-08T18:29:52.831Z,16.92
2023-02-08T18:32:22.034Z,17.50
2023-02-08T18:34:50.492Z,15.20
2023-02-08T18:37:18.462Z,17.60
2023-02-08T18:39:46.177Z,15.23
2023-02-08T18:42:15.584Z,16.52
2023-02-08T18:44:45.635Z,16.95
2023-02-08T18:47:14.166Z,18.13
2023-02-08T18:49:42.358Z,17.17
2023-02-08T18:52:11.110Z,16.27
2023-02-08T18:54:39.572Z,16.00
2023-02-08T18:57:09.608Z,17.83
2023-02-08T18:59:38.982Z,16.92
2023-02-08T19:02:08.046Z,16.95
2023-02-08T19:04:38.105Z,17.15
2023-02-08T19:07:05.975Z,17.05
2023-02-08T19:09:35.842Z,16.58
2023-02-08T19:12:03.524Z,16.63
2023-02-08T19:14:31.346Z,15.90
2023-02-08T19:17:00.712Z,16.90
2023-02-08T19:19:28.468Z,17.98
2023-02-08T19:21:56.177Z,18.17
2023-02-08T19:24:24.296Z,16.42
2023-02-08T19:26:51.984Z,16.23
2023-02-08T19:29:22.258Z,16.27
2023-02-08T19:31:50.852Z,16.83
2023-02-08T19:34:20.700Z,17.55
2023-02-08T19:36:51.622Z,15.98
2023-02-08T19:39:22.030Z,17.15
2023-02-08T19:41:50.129Z,16.90
2023-02-08T19:44:19.630Z,17.40
2023-02-08T19:46:49.190Z,17.73
2023-02-08T19:49:18.251Z,17.42
2023-02-08T19:51:47.541Z,19.05
2023-02-08T19:54:16.969Z,17.52
2023-02-08T19:56:44.806Z,17.10
2023-02-08T19:59:18.143Z,17.23
2023-02-08T20:01:46.065Z,17.70
2023-02-08T20:04:14.163Z,17.25
2023-02-08T20:06:42.846Z,18.63
2023-02-08T20:09:12.964Z,17.45
2023-02-08T20:11:56.444Z,17.10
2023-02-08T20:14:25.297Z,17.77
2023-02-08T20:16:53.139Z,17.92
2023-02-08T20:19:21.048Z,17.85
2023-02-08T20:21:48.825Z,17.80
2023-02-08T20:24:18.060Z,16.40
2023-02-08T20:26:47.410Z,17.40
2023-02-08T20:29:15.627Z,17.35
2023-02-08T20:31:46.673Z,18.83
2023-02-08T20:34:15.797Z,12.93
2023-02-08T20:36:51.955Z,17.00
2023-02-08T20:39:23.853Z,18.17
2023-02-08T20:41:51.575Z,17.75
2023-02-08T20:44:19.817Z,18.23
2023-02-08T20:46:47.715Z,18.77
2023-02-08T20:49:21.503Z,20.58
2023-02-08T20:51:52.836Z,19.35
2023-02-08T20:54:22.930Z,21.33
2023-02-08T20:56:52.728Z,20.05
2023-02-08T20:59:20.434Z,20.77
2023-02-08T21:01:48.257Z,20.15
2023-02-08T21:04:17.115Z,22.27
2023-02-08T21:06:46.027Z,21.33
2023-02-08T21:09:15.947Z,21.02
2023-02-08T21:11:44.241Z,20.02
2023-02-08T21:14:18.570Z,19.75
2023-02-08T21:16:47.696Z,19.67
2023-02-08T21:19:15.981Z,20.02
2023-02-08T21:21:43.961Z,19.02
2023-02-08T21:24:12.068Z,20.25
2023-02-08T21:26:40.054Z,18.20
2023-02-08T21:29:07.921Z,21.58
2023-02-08T21:31:37.710Z,20.73
2023-02-08T21:34:06.653Z,20.27
2023-02-08T21:36:34.961Z,19.65
2023-02-08T21:39:02.704Z,19.55
2023-02-08T21:41:32.011Z,21.33
2023-02-08T21:44:03.199Z,20.65
2023-02-08T21:46:31.668Z,21.27
2023-02-08T21:49:18.643Z,22.27
2023-02-08T21:52:03.975Z,24.35
2023-02-08T21:54:44.455Z,22.25
2023-02-08T21:57:15.874Z,23.67
2023-02-08T21:59:44.279Z,24.10
2023-02-08T22:02:14.791Z,24.08
2023-02-08T22:04:46.778Z,23.40
2023-02-08T22:07:13.858Z,24.80
2023-02-08T22:09:42.116Z,24.02
2023-02-08T22:12:14.530Z,23.08
2023-02-08T22:14:42.259Z,20.23
2023-02-08T22:17:10.238Z,22.30
2023-02-08T22:19:38.568Z,18.98
2023-02-08T22:22:08.307Z,18.25
2023-02-08T22:24:37.028Z,19.33
2023-02-08T22:27:04.862Z,20.45
2023-02-08T22:29:33.096Z,18.38
2023-02-08T22:32:01.119Z,19.83
2023-02-08T22:34:29.138Z,18.60
2023-02-08T22:36:56.974Z,21.35
2023-02-08T22:39:26.166Z,17.42
2023-02-08T22:41:53.959Z,18.90
2023-02-08T22:44:21.691Z,20.05
2023-02-08T22:46:49.513Z,20.55
2023-02-08T22:49:17.378Z,20.10
2023-02-08T22:51:45.144Z,18.25
2023-02-08T22:54:12.897Z,18.80
2023-02-08T22:56:42.013Z,20.42
2023-02-08T22:59:09.848Z,21.20
2023-02-08T23:01:38.209Z,19.05
2023-02-08T23:04:06.391Z,20.33
2023-02-08T23:06:34.767Z,20.23
2023-02-08T23:09:03.194Z,22.70
2023-02-08T23:11:30.985Z,21.25
2023-02-08T23:14:00.133Z,22.00
2023-02-08T23:16:27.894Z,20.67
2023-02-08T23:18:55.704Z,19.83
2023-02-08T23:21:23.458Z,18.67
2023-02-08T23:23:51.428Z,17.20
2023-02-08T23:26:20.984Z,20.50
2023-02-08T23:28:50.752Z,17.65
2023-02-08T23:31:20.864Z,17.40
2023-02-08T23:33:49.131Z,17.70
2023-02-08T23:36:18.571Z,18.27
2023-02-08T23:38:46.684Z,17.50
2023-02-08T23:41:16.742Z,18.15
2023-02-08T23:43:44.813Z,18.50
2023-02-08T23:46:16.052Z,19.58
2023-02-08T23:48:45.748Z,15.65
2023-02-08T23:51:13.499Z,18.90
2023-02-08T23:53:41.416Z,20.45
2023-02-08T23:56:14.321Z,21.98
2023-02-08T23:58:42.504Z,20.13
